Time;durP1;ratioP1;P1;durP2;ratioP2;P2;SDS_P1;SDS_P2;PMS_P1;PMS_P2;Temp;Humidity;BMP_temperature;BMP_pressure;BME280_temperature;BME280_humidity;BME280_pressure;Samples;Min_cycle;Max_cycle;Signal;HPM_P1;HPM_P2
2021/05/11 00:02:13;;;;;;;4.22;1.98;;;17.60;80.90;;;;;;5024600;28;20020;-86
2021/05/11 00:04:39;;;;;;;5.57;1.80;;;17.60;81.00;;;;;;5020860;28;20144;-86
2021/05/11 00:07:05;;;;;;;3.53;1.83;;;17.50;80.00;;;;;;5027752;28;20060;-86
2021/05/11 00:09:30;;;;;;;5.78;2.42;;;17.50;80.60;;;;;;5024929;28;20071;-86
2021/05/11 00:11:56;;;;;;;6.57;2.20;;;17.50;80.20;;;;;;5036118;28;20024;-86
2021/05/11 00:14:22;;;;;;;6.22;2.30;;;17.40;80.70;;;;;;5031395;28;20024;-86
2021/05/11 00:16:47;;;;;;;4.70;2.20;;;17.40;80.90;;;;;;5026715;28;20032;-86
2021/05/11 00:19:15;;;;;;;6.60;2.75;;;17.40;81.20;;;;;;5032233;28;20044;-86
2021/05/11 00:21:40;;;;;;;4.93;2.00;;;17.40;81.50;;;;;;5037325;28;20025;-86
2021/05/11 00:24:06;;;;;;;5.75;1.98;;;17.30;81.60;;;;;;5020688;28;20022;-86
2021/05/11 00:26:37;;;;;;;5.72;2.47;;;17.30;81.90;;;;;;5049859;28;20028;-86
2021/05/11 00:29:04;;;;;;;4.88;2.00;;;17.30;81.20;;;;;;5053749;28;20064;-86
2021/05/11 00:31:30;;;;;;;5.30;2.30;;;17.30;80.60;;;;;;5066103;28;20028;-86
2021/05/11 00:33:56;;;;;;;5.07;2.22;;;17.20;81.20;;;;;;5050896;28;20043;-87
2021/05/11 00:36:22;;;;;;;6.43;2.38;;;17.20;81.60;;;;;;5033808;28;20029;-87
2021/05/11 00:38:48;;;;;;;4.13;1.92;;;17.20;82.10;;;;;;5028934;28;20039;-87
2021/05/11 00:41:14;;;;;;;4.95;1.90;;;17.10;82.10;;;;;;5050786;28;20029;-86
2021/05/11 00:43:43;;;;;;;4.95;2.45;;;17.10;81.60;;;;;;5036825;28;20036;-86
2021/05/11 00:46:09;;;;;;;5.90;2.25;;;17.10;81.70;;;;;;5053598;28;20078;-87
2021/05/11 00:48:35;;;;;;;3.88;1.92;;;17.00;81.80;;;;;;5036838;28;20025;-86
2021/05/11 00:51:04;;;;;;;6.30;2.22;;;17.00;81.90;;;;;;5053428;28;20037;-86
2021/05/11 00:53:30;;;;;;;3.60;1.83;;;17.00;81.50;;;;;;5054016;28;20037;-87
2021/05/11 00:55:56;;;;;;;3.60;1.90;;;17.00;81.00;;;;;;5037116;28;20039;-87
2021/05/11 00:58:22;;;;;;;4.97;1.85;;;16.90;81.10;;;;;;5053043;28;20493;-87
2021/05/11 01:00:47;;;;;;;9.43;2.67;;;16.90;82.00;;;;;;5020495;28;20112;-87
2021/05/11 01:03:13;;;;;;;5.72;1.80;;;16.90;82.20;;;;;;5020186;28;20021;-86
2021/05/11 01:05:39;;;;;;;4.95;1.95;;;16.90;82.00;;;;;;5033091;28;20056;-86
2021/05/11 01:08:05;;;;;;;5.78;2.03;;;16.80;82.10;;;;;;5067022;28;20033;-87
2021/05/11 01:10:31;;;;;;;6.15;2.00;;;16.80;82.30;;;;;;5038091;28;20025;-87
2021/05/11 01:12:57;;;;;;;5.95;2.30;;;16.80;82.00;;;;;;5023238;28;20037;-87
2021/05/11 01:15:22;;;;;;;7.43;2.72;;;16.80;82.00;;;;;;5033880;28;20088;-87
2021/05/11 01:17:55;;;;;;;7.55;2.45;;;16.80;82.50;;;;;;5019970;28;20033;-86
2021/05/11 01:20:35;;;;;;;8.77;2.47;;;16.80;82.40;;;;;;5030228;28;20063;-86
2021/05/11 01:25:32;;;;;;;8.55;3.05;;;16.70;83.30;;;;;;5050664;28;20040;-86
2021/05/11 01:47:45;;;;;;;7.93;2.65;;;16.60;83.90;;;;;;5065796;28;20115;-86
2021/05/11 02:24:48;;;;;;;6.65;2.75;;;16.30;84.80;;;;;;5042258;28;20039;-86
2021/05/11 02:27:13;;;;;;;6.10;2.88;;;16.30;85.30;;;;;;5035084;28;20479;-86
2021/05/11 02:29:39;;;;;;;9.45;3.38;;;16.30;85.30;;;;;;5019805;28;20029;-87
2021/05/11 02:32:05;;;;;;;9.52;3.03;;;16.30;85.60;;;;;;5021649;28;20078;-86
2021/05/11 02:34:30;;;;;;;5.57;2.83;;;16.20;85.60;;;;;;5038096;28;20036;-86
2021/05/11 02:36:56;;;;;;;7.68;2.85;;;16.30;85.60;;;;;;5034825;28;20027;-86
2021/05/11 02:39:22;;;;;;;8.02;2.92;;;16.30;85.60;;;;;;5046402;28;20465;-86
2021/05/11 02:41:48;;;;;;;9.70;3.30;;;16.20;85.60;;;;;;5021355;28;20025;-86
2021/05/11 02:44:16;;;;;;;7.03;2.80;;;16.20;85.70;;;;;;5037860;28;20020;-86
2021/05/11 02:46:42;;;;;;;6.80;3.10;;;16.20;85.80;;;;;;5054443;28;20025;-87
2021/05/11 02:49:08;;;;;;;6.10;2.53;;;16.20;85.60;;;;;;5055556;28;20020;-86
2021/05/11 02:51:34;;;;;;;5.88;2.83;;;16.20;85.60;;;;;;5021624;28;20127;-86
2021/05/11 02:54:00;;;;;;;5.88;2.85;;;16.20;85.90;;;;;;5034423;28;20120;-87
2021/05/11 02:56:25;;;;;;;6.85;2.95;;;16.20;86.00;;;;;;5037717;28;20036;-86
2021/05/11 02:58:51;;;;;;;5.32;2.78;;;16.20;86.10;;;;;;5037879;28;20031;-87
2021/05/11 03:01:17;;;;;;;6.20;3.13;;;16.20;86.30;;;;;;5021396;28;20033;-87
2021/05/11 03:03:43;;;;;;;6.38;3.33;;;16.20;86.70;;;;;;5079852;22;20009;-88
2021/05/11 03:06:10;;;;;;;5.70;3.03;;;16.10;86.60;;;;;;5054629;28;20481;-88
2021/05/11 03:08:36;;;;;;;7.03;3.53;;;16.10;86.50;;;;;;5038186;28;20025;-88
2021/05/11 03:11:01;;;;;;;7.63;3.28;;;16.10;86.50;;;;;;5068796;28;20039;-88
2021/05/11 03:13:27;;;;;;;8.50;3.58;;;16.10;86.80;;;;;;5032945;28;20036;-88
2021/05/11 03:15:52;;;;;;;9.27;3.83;;;16.10;86.80;;;;;;5036600;28;20025;-88
2021/05/11 03:18:18;;;;;;;8.40;3.65;;;16.10;86.90;;;;;;5037873;28;20029;-88
2021/05/11 03:20:44;;;;;;;7.38;3.10;;;16.10;86.90;;;;;;5037821;28;20095;-88
2021/05/11 03:23:09;;;;;;;6.20;3.20;;;16.10;86.70;;;;;;5031213;28;20030;-88
2021/05/11 03:25:35;;;;;;;7.05;3.65;;;16.00;86.70;;;;;;5045551;28;20028;-89
2021/05/11 03:28:01;;;;;;;6.72;3.58;;;16.00;87.20;;;;;;5064565;28;20027;-88
2021/05/11 03:30:26;;;;;;;6.53;3.80;;;16.00;87.40;;;;;;5096510;28;20027;-88
2021/05/11 03:32:52;;;;;;;8.10;3.50;;;16.00;87.60;;;;;;5047138;28;20033;-88
2021/05/11 03:35:18;;;;;;;6.43;3.35;;;15.90;87.60;;;;;;5046951;28;20039;-88
2021/05/11 03:37:43;;;;;;;6.38;3.70;;;15.90;88.00;;;;;;5058557;28;20385;-88
2021/05/11 03:40:10;;;;;;;7.07;3.63;;;15.90;88.00;;;;;;5058541;28;20169;-88
2021/05/11 03:42:42;;;;;;;7.38;3.20;;;15.90;88.00;;;;;;5041722;28;20040;-88
2021/05/11 03:45:12;;;;;;;7.40;3.15;;;15.90;87.80;;;;;;5075928;28;20017;-88
2021/05/11 03:47:46;;;;;;;6.25;3.20;;;15.90;88.10;;;;;;5047953;28;20131;-88
2021/05/11 03:50:16;;;;;;;7.38;3.20;;;15.90;88.20;;;;;;5039663;28;20421;-88
2021/05/11 03:52:42;;;;;;;5.57;3.30;;;15.90;88.30;;;;;;5058068;28;20124;-88
2021/05/11 03:55:08;;;;;;;5.93;3.08;;;15.90;88.40;;;;;;5057925;28;20102;-88
2021/05/11 03:57:34;;;;;;;5.35;2.85;;;15.90;88.40;;;;;;5057900;28;20033;-89
2021/05/11 04:00:00;;;;;;;5.15;3.00;;;15.90;88.50;;;;;;5057599;28;20074;-88
2021/05/11 04:02:25;;;;;;;5.22;2.72;;;15.90;88.70;;;;;;5057825;28;20024;-88
2021/05/11 04:04:51;;;;;;;5.25;2.78;;;15.90;88.70;;;;;;5040985;28;20037;-88
2021/05/11 04:07:17;;;;;;;7.93;3.72;;;15.90;88.70;;;;;;5040748;28;20477;-89
2021/05/11 04:09:50;;;;;;;5.88;3.35;;;15.90;88.80;;;;;;5057713;28;20435;-88
2021/05/11 04:17:34;;;;;;;6.03;3.03;;;15.90;88.70;;;;;;5058486;28;20094;-88
2021/05/11 04:20:00;;;;;;;5.65;3.17;;;15.90;88.70;;;;;;5049694;28;20412;-89
2021/05/11 04:22:26;;;;;;;5.75;3.33;;;15.90;88.80;;;;;;5077288;28;20032;-88
2021/05/11 04:24:53;;;;;;;6.55;3.30;;;15.80;88.60;;;;;;5054267;28;20016;-89
2021/05/11 04:27:19;;;;;;;5.82;2.92;;;15.80;88.40;;;;;;5041211;28;20056;-88
2021/05/11 04:29:47;;;;;;;5.90;2.80;;;15.80;88.40;;;;;;5056089;28;20059;-88
2021/05/11 04:32:13;;;;;;;7.57;3.50;;;15.80;88.90;;;;;;5057391;28;20021;-89
2021/05/11 04:34:38;;;;;;;5.20;2.83;;;15.80;88.40;;;;;;5042610;28;20035;-89
2021/05/11 04:37:04;;;;;;;8.57;3.75;;;15.80;88.50;;;;;;5068466;28;20047;-88
2021/05/11 04:39:30;;;;;;;8.30;3.65;;;15.80;88.10;;;;;;5072255;28;20043;-88
2021/05/11 04:41:55;;;;;;;8.02;3.80;;;15.70;88.00;;;;;;5070600;28;20496;-88
2021/05/11 04:44:24;;;;;;;5.78;3.50;;;15.70;88.00;;;;;;5037065;28;20020;-88
2021/05/11 04:46:57;;;;;;;8.88;3.92;;;15.70;87.90;;;;;;5055178;28;20032;-88
2021/05/11 04:49:25;;;;;;;9.20;4.30;;;15.70;88.30;;;;;;5058711;28;20064;-89
2021/05/11 04:51:50;;;;;;;5.95;3.38;;;15.70;88.00;;;;;;5075766;28;20024;-89
2021/05/11 04:54:16;;;;;;;6.88;3.60;;;15.70;87.90;;;;;;5077205;28;20032;-89
2021/05/11 04:56:42;;;;;;;7.38;3.63;;;15.70;88.20;;;;;;5048643;28;20037;-88
2021/05/11 04:59:07;;;;;;;6.93;3.80;;;15.70;87.90;;;;;;5040466;28;20025;-89
2021/05/11 05:01:33;;;;;;;8.13;4.22;;;15.60;88.00;;;;;;5040246;28;20040;-89
2021/05/11 05:04:00;;;;;;;9.27;4.05;;;15.60;88.00;;;;;;5040124;28;20064;-89
2021/05/11 05:06:26;;;;;;;7.68;3.80;;;15.50;88.20;;;;;;5074715;28;20107;-88
2021/05/11 05:08:51;;;;;;;8.27;3.85;;;15.60;88.50;;;;;;5040065;28;20112;-89
2021/05/11 05:11:17;;;;;;;6.68;4.05;;;15.50;88.70;;;;;;5036859;28;20382;-88
2021/05/11 05:13:44;;;;;;;7.78;3.42;;;15.60;88.70;;;;;;5040483;28;20040;-88
2021/05/11 05:16:11;;;;;;;6.70;3.65;;;15.60;88.90;;;;;;5065704;28;20051;-86
2021/05/11 05:18:36;;;;;;;8.55;4.15;;;15.60;89.00;;;;;;5041151;28;20036;-87
2021/05/11 05:21:06;;;;;;;8.90;4.18;;;15.60;89.10;;;;;;5039479;28;20032;-88
2021/05/11 05:23:47;;;;;;;7.22;3.97;;;15.60;89.30;;;;;;5065879;28;20073;-88
2021/05/11 05:26:17;;;;;;;7.68;3.53;;;15.60;89.60;;;;;;5076383;28;20074;-88
2021/05/11 05:28:43;;;;;;;8.60;4.00;;;15.60;89.30;;;;;;5067341;28;20043;-88
2021/05/11 05:31:09;;;;;;;6.95;3.58;;;15.60;89.50;;;;;;5056821;28;20497;-89
2021/05/11 05:33:37;;;;;;;5.28;3.25;;;15.60;89.60;;;;;;5055291;28;20024;-89
2021/05/11 05:36:04;;;;;;;7.47;3.50;;;15.60;89.60;;;;;;5056460;28;20123;-88
2021/05/11 05:38:30;;;;;;;7.07;3.78;;;15.60;89.50;;;;;;5042747;28;20021;-88
2021/05/11 05:41:05;;;;;;;6.88;3.60;;;15.60;89.30;;;;;;5048789;28;20036;-88
2021/05/11 05:43:31;;;;;;;7.47;3.95;;;15.60;89.50;;;;;;5047427;28;20116;-88
2021/05/11 05:45:56;;;;;;;5.72;3.50;;;15.60;89.80;;;;;;5068491;28;20027;-88
2021/05/11 05:48:22;;;;;;;7.38;3.75;;;15.60;89.80;;;;;;5067924;28;20479;-88
2021/05/11 05:50:54;;;;;;;6.88;3.35;;;15.50;90.00;;;;;;5052499;28;20028;-88
2021/05/11 05:53:26;;;;;;;8.23;3.70;;;15.60;90.10;;;;;;5068883;28;20078;-89
2021/05/11 05:55:52;;;;;;;6.50;3.67;;;15.60;90.20;;;;;;5036179;28;20516;-88
2021/05/11 05:58:18;;;;;;;8.20;3.80;;;15.50;90.30;;;;;;5059502;28;20029;-88
2021/05/11 06:00:44;;;;;;;6.88;3.70;;;15.50;90.30;;;;;;5044111;28;20021;-88
2021/05/11 06:04:12;;;;;;;7.30;3.67;;;15.60;90.40;;;;;;5058886;28;20039;-88
2021/05/11 06:06:07;;;;;;;7.90;3.78;;;15.60;90.50;;;;;;5064302;28;20040;-88
2021/05/11 06:08:33;;;;;;;6.50;3.55;;;15.60;90.50;;;;;;5061467;28;20035;-88
2021/05/11 06:13:38;;;;;;;6.80;3.70;;;15.70;90.60;;;;;;5063849;28;20032;-88
2021/05/11 06:18:48;;;;;;;6.18;3.33;;;15.70;90.50;;;;;;5059126;28;20100;-88
2021/05/11 06:21:14;;;;;;;7.30;3.55;;;15.70;90.50;;;;;;5053244;28;20063;-89
2021/05/11 06:23:39;;;;;;;9.40;3.72;;;15.70;90.50;;;;;;5055766;28;20408;-88
2021/05/11 06:26:05;;;;;;;6.82;3.65;;;15.70;90.50;;;;;;5039114;28;20031;-89
2021/05/11 06:28:37;;;;;;;7.60;3.45;;;15.70;90.60;;;;;;5036292;28;20053;-88
2021/05/11 06:31:02;;;;;;;8.65;3.45;;;15.70;90.60;;;;;;5040780;28;20041;-89
2021/05/11 06:33:28;;;;;;;6.32;3.65;;;15.70;90.60;;;;;;5056768;28;20084;-88
2021/05/11 06:35:54;;;;;;;7.68;3.70;;;15.70;90.70;;;;;;5039408;28;20024;-89
2021/05/11 06:38:20;;;;;;;7.72;4.25;;;15.70;90.80;;;;;;5022299;28;20477;-88
2021/05/11 06:40:46;;;;;;;9.98;3.92;;;15.80;91.00;;;;;;5039623;28;20032;-89
2021/05/11 06:43:14;;;;;;;5.85;3.30;;;15.80;91.00;;;;;;5039595;28;20028;-89
2021/05/11 06:48:29;;;;;;;8.35;3.50;;;15.90;91.00;;;;;;5040680;28;20114;-89
2021/05/11 06:53:42;;;;;;;6.47;3.70;;;15.90;90.90;;;;;;5055492;28;20040;-89
2021/05/11 06:56:10;;;;;;;6.20;3.70;;;15.90;90.90;;;;;;5038591;28;20008;-89
2021/05/11 06:58:36;;;;;;;7.85;3.53;;;16.00;90.80;;;;;;5053691;28;20385;-89
2021/05/11 07:01:03;;;;;;;6.05;3.88;;;16.00;90.80;;;;;;5055216;28;20040;-89
2021/05/11 07:03:29;;;;;;;7.47;3.83;;;16.00;90.70;;;;;;5056752;28;20113;-89
2021/05/11 07:05:54;;;;;;;8.20;3.72;;;16.00;90.60;;;;;;5055458;28;20080;-89
2021/05/11 07:10:53;;;;;;;7.40;3.88;;;16.00;90.60;;;;;;5073306;28;20074;-89
2021/05/11 07:13:18;;;;;;;7.32;3.90;;;16.10;90.50;;;;;;5068981;28;20050;-90
2021/05/11 07:15:45;;;;;;;5.78;3.60;;;16.10;90.40;;;;;;5043341;28;20028;-90
2021/05/11 07:18:17;;;;;;;5.57;3.47;;;16.10;90.40;;;;;;5058905;28;20043;-90
2021/05/11 07:20:48;;;;;;;7.05;4.00;;;16.20;90.30;;;;;;5041770;28;20576;-88
2021/05/11 07:23:21;;;;;;;6.35;3.15;;;16.30;90.40;;;;;;5067808;28;20367;-90
2021/05/11 07:31:25;;;;;;;7.40;3.97;;;16.60;90.30;;;;;;5073365;28;20032;-89
2021/05/11 07:33:53;;;;;;;6.45;3.67;;;16.70;90.10;;;;;;5039816;28;20021;-90
2021/05/11 07:36:21;;;;;;;6.50;3.55;;;16.80;89.90;;;;;;5053169;28;20044;-89
2021/05/11 07:42:09;;;;;;;6.10;2.95;;;17.00;88.60;;;;;;5070506;28;20039;-90
2021/05/11 07:44:37;;;;;;;5.55;3.10;;;17.10;88.20;;;;;;5041010;28;20021;-88
2021/05/11 07:47:11;;;;;;;5.70;2.78;;;17.20;88.10;;;;;;5037326;28;20098;-89
2021/05/11 07:50:05;;;;;;;14.38;4.85;;;17.30;87.80;;;;;;5044790;28;20046;-89
2021/05/11 08:03:31;;;;;;;18.17;6.25;;;17.80;85.50;;;;;;5059095;28;20040;-89
2021/05/11 08:14:40;;;;;;;8.80;3.33;;;18.00;82.60;;;;;;5061714;28;20090;-90
2021/05/11 08:17:06;;;;;;;6.95;3.35;;;18.00;82.40;;;;;;5032909;28;20074;-90
2021/05/11 08:29:56;;;;;;;6.03;3.13;;;18.10;80.90;;;;;;5072593;28;20384;-89
2021/05/11 08:32:22;;;;;;;8.10;3.70;;;18.10;81.20;;;;;;5038264;28;20032;-87
2021/05/11 08:34:49;;;;;;;8.50;3.58;;;18.10;80.90;;;;;;5056568;28;20040;-91
2021/05/11 08:37:17;;;;;;;6.82;3.40;;;18.10;80.60;;;;;;5058042;28;20035;-91
2021/05/11 08:39:44;;;;;;;6.47;3.40;;;18.00;80.50;;;;;;5042758;28;20390;-92
2021/05/11 08:42:10;;;;;;;7.97;3.80;;;18.00;80.50;;;;;;5042506;28;20028;-91
2021/05/11 08:44:36;;;;;;;5.85;3.38;;;18.00;80.60;;;;;;5041970;28;20025;-90
2021/05/11 08:47:04;;;;;;;7.68;2.70;;;18.00;80.80;;;;;;5057845;28;20024;-90
2021/05/11 08:49:30;;;;;;;7.05;3.30;;;18.00;81.30;;;;;;5043715;28;20050;-90
2021/05/11 08:54:33;;;;;;;8.02;3.15;;;18.10;82.00;;;;;;5060626;28;20024;-89
2021/05/11 09:05:15;;;;;;;8.20;4.50;;;18.10;80.10;;;;;;5060999;23;20059;-86
2021/05/11 10:49:38;;;;;;;5.03;2.50;;;19.50;75.00;;;;;;4972579;28;20043;-84
2021/05/11 11:03:13;;;;;;;7.43;2.75;;;19.70;71.00;;;;;;5048126;28;20032;-83
2021/05/11 11:05:44;;;;;;;7.27;2.93;;;19.70;69.60;;;;;;5049331;28;20083;-83
2021/05/11 11:08:26;;;;;;;5.47;2.67;;;19.70;71.00;;;;;;5067843;28;20079;-83
2021/05/11 11:11:02;;;;;;;5.75;2.20;;;19.70;71.70;;;;;;5052136;28;20020;-83
2021/05/11 11:13:28;;;;;;;5.95;2.92;;;19.70;70.90;;;;;;5051944;28;20032;-83
2021/05/11 11:15:59;;;;;;;5.70;2.92;;;19.70;69.90;;;;;;5033517;28;20038;-83
2021/05/11 11:18:25;;;;;;;6.03;2.90;;;19.70;70.10;;;;;;5034094;28;20040;-82
2021/05/11 11:21:07;;;;;;;6.05;2.90;;;19.70;70.60;;;;;;5049060;28;20029;-82
2021/05/11 11:23:53;;;;;;;6.50;3.10;;;19.70;70.80;;;;;;5035256;28;20116;-83
2021/05/11 11:26:33;;;;;;;7.13;2.63;;;19.80;71.60;;;;;;5051163;28;20017;-83
2021/05/11 11:28:59;;;;;;;5.55;2.25;;;19.90;72.80;;;;;;5067159;28;20535;-83
2021/05/11 11:31:27;;;;;;;6.45;2.53;;;20.00;72.10;;;;;;5050550;28;20031;-83
2021/05/11 11:33:53;;;;;;;4.60;2.70;;;20.00;71.50;;;;;;5052084;28;20040;-83
2021/05/11 11:36:33;;;;;;;5.07;2.97;;;20.10;69.80;;;;;;5048840;28;20029;-83
2021/05/11 11:39:00;;;;;;;5.78;2.70;;;20.10;68.90;;;;;;5053005;28;20040;-83
2021/05/11 11:41:27;;;;;;;7.60;2.90;;;20.00;69.40;;;;;;5053438;28;20035;-82
2021/05/11 11:43:54;;;;;;;6.07;3.17;;;20.00;69.50;;;;;;5065835;28;20053;-83
2021/05/11 11:46:27;;;;;;;6.63;3.35;;;19.90;69.80;;;;;;5048574;28;20537;-82
2021/05/11 11:49:03;;;;;;;5.60;2.72;;;19.90;69.40;;;;;;5069310;28;20033;-81
2021/05/11 11:51:32;;;;;;;7.72;2.97;;;19.80;70.20;;;;;;5072459;28;20021;-82
2021/05/11 11:54:31;;;;;;;6.88;2.70;;;19.80;70.40;;;;;;5055735;28;20060;-82
2021/05/11 11:59:36;;;;;;;5.82;2.70;;;19.70;70.90;;;;;;5054209;28;20098;-82
2021/05/11 12:02:05;;;;;;;9.68;2.75;;;19.70;71.30;;;;;;5054619;28;20363;-82
2021/05/11 12:04:31;;;;;;;7.75;3.30;;;19.70;71.30;;;;;;5054659;28;20048;-83
2021/05/11 12:07:05;;;;;;;5.38;2.65;;;19.70;71.50;;;;;;5054888;28;20079;-82
2021/05/11 12:09:32;;;;;;;6.78;2.60;;;19.60;71.00;;;;;;5053209;28;20079;-84
2021/05/11 12:12:00;;;;;;;5.90;2.70;;;19.60;71.50;;;;;;5054146;28;20048;-84
2021/05/11 12:14:27;;;;;;;6.35;2.70;;;19.60;71.60;;;;;;5052487;28;20055;-82
2021/05/11 12:16:52;;;;;;;6.07;3.05;;;19.60;71.10;;;;;;5053264;28;20033;-84
2021/05/11 12:19:20;;;;;;;7.63;2.92;;;19.60;71.00;;;;;;5053919;28;20032;-84
2021/05/11 12:21:58;;;;;;;6.85;2.65;;;19.60;71.30;;;;;;5035221;28;20033;-84
2021/05/11 12:24:28;;;;;;;5.20;2.67;;;19.50;72.00;;;;;;5048252;28;20020;-84
2021/05/11 12:27:09;;;;;;;6.03;2.80;;;19.50;71.80;;;;;;5048801;28;20044;-84
2021/05/11 12:29:35;;;;;;;7.00;3.10;;;19.50;71.60;;;;;;5064903;28;20079;-84
2021/05/11 12:32:00;;;;;;;7.22;3.20;;;19.50;71.60;;;;;;5054536;28;20029;-85
2021/05/11 12:34:26;;;;;;;6.97;3.10;;;19.50;72.30;;;;;;5044589;28;20061;-85
2021/05/11 12:37:01;;;;;;;8.02;2.97;;;19.50;73.30;;;;;;5049478;28;20041;-85
2021/05/11 12:39:44;;;;;;;5.70;3.00;;;19.50;73.30;;;;;;5070757;28;20021;-85
2021/05/11 12:42:25;;;;;;;7.35;3.63;;;19.40;74.60;;;;;;5054794;28;20031;-85
2021/05/11 12:45:07;;;;;;;7.13;3.25;;;19.50;75.20;;;;;;5054432;28;20049;-85
2021/05/11 12:47:48;;;;;;;5.80;3.30;;;19.40;75.50;;;;;;5051310;28;20025;-84
2021/05/11 12:50:24;;;;;;;6.90;3.60;;;19.40;76.70;;;;;;5057347;28;20025;-84
2021/05/11 12:52:52;;;;;;;8.00;4.43;;;19.40;78.40;;;;;;5055799;28;20029;-85
2021/05/11 12:56:10;;;;;;;9.18;4.63;;;19.40;76.80;;;;;;5054099;28;20021;-85
2021/05/11 13:01:25;;;;;;;8.23;4.82;;;19.40;78.00;;;;;;5057598;28;20043;-85
2021/05/11 13:09:22;;;;;;;9.40;4.90;;;19.40;78.80;;;;;;5068364;28;20024;-86
2021/05/11 13:25:38;;;;;;;7.40;3.63;;;19.30;81.90;;;;;;5056192;28;19935;-86
2021/05/11 13:35:49;;;;;;;7.75;4.40;;;19.30;82.40;;;;;;5047185;28;20097;-85
2021/05/11 13:38:15;;;;;;;8.55;3.85;;;19.20;82.10;;;;;;5036125;28;20426;-86
2021/05/11 13:40:40;;;;;;;12.20;5.03;;;19.20;82.50;;;;;;5054321;28;20019;-85
2021/05/11 13:43:06;;;;;;;7.05;4.20;;;19.20;82.80;;;;;;5053137;28;20028;-85
2021/05/11 13:45:32;;;;;;;8.20;4.63;;;19.20;83.10;;;;;;5036743;28;20119;-85
2021/05/11 13:48:06;;;;;;;9.15;4.38;;;19.20;82.90;;;;;;5070099;28;20435;-85
2021/05/11 13:50:50;;;;;;;8.10;4.38;;;19.20;83.00;;;;;;5038201;28;20052;-86
2021/05/11 13:53:16;;;;;;;9.48;4.28;;;19.10;82.90;;;;;;5053811;28;20025;-85
2021/05/11 14:03:41;;;;;;;7.28;3.70;;;19.00;82.30;;;;;;5054425;28;20094;-85
2021/05/11 14:06:07;;;;;;;9.98;3.65;;;19.00;82.80;;;;;;5050587;28;20161;-85
2021/05/11 14:08:33;;;;;;;7.25;3.63;;;19.00;83.00;;;;;;5052430;28;20394;-86
2021/05/11 14:10:58;;;;;;;10.02;4.10;;;18.90;83.30;;;;;;5055236;28;20028;-85
2021/05/11 14:13:24;;;;;;;6.72;3.90;;;18.90;83.80;;;;;;5053713;28;20044;-86
2021/05/11 14:15:50;;;;;;;6.20;4.15;;;18.90;83.80;;;;;;5071371;28;20036;-85
2021/05/11 14:18:16;;;;;;;9.27;4.80;;;18.90;84.40;;;;;;5055940;28;20086;-85
2021/05/11 14:20:42;;;;;;;9.77;5.28;;;18.90;84.30;;;;;;5034458;28;20021;-85
2021/05/11 14:23:08;;;;;;;9.10;5.15;;;18.90;84.60;;;;;;5060712;28;20431;-86
2021/05/11 14:25:33;;;;;;;8.27;5.05;;;18.90;84.70;;;;;;5037995;28;20036;-86
2021/05/11 14:27:59;;;;;;;9.27;5.10;;;18.90;84.50;;;;;;5050372;28;20057;-86
2021/05/11 14:30:25;;;;;;;9.85;5.55;;;18.80;84.80;;;;;;5031825;28;20033;-86
2021/05/11 14:32:51;;;;;;;6.70;4.63;;;18.80;85.00;;;;;;5036946;28;20025;-86
2021/05/11 14:35:16;;;;;;;8.35;4.85;;;18.80;85.20;;;;;;5036830;28;20032;-86
2021/05/11 14:37:42;;;;;;;8.27;5.65;;;18.80;85.30;;;;;;5038412;28;20033;-86
2021/05/11 14:40:08;;;;;;;7.57;5.55;;;18.80;85.20;;;;;;5041636;28;20109;-86
2021/05/11 14:42:34;;;;;;;9.15;5.30;;;18.80;85.10;;;;;;5050913;28;20474;-86
2021/05/11 14:44:59;;;;;;;11.50;5.82;;;18.70;85.00;;;;;;5049779;28;20026;-86
2021/05/11 14:47:26;;;;;;;8.82;5.43;;;18.70;85.00;;;;;;5030722;28;20393;-86
2021/05/11 14:49:52;;;;;;;7.90;5.05;;;18.70;85.60;;;;;;5037164;28;20444;-85
2021/05/11 14:52:18;;;;;;;7.22;4.90;;;18.70;85.30;;;;;;5070636;28;20029;-86
2021/05/11 14:54:44;;;;;;;8.57;5.53;;;18.60;85.60;;;;;;5035715;28;20047;-86
2021/05/11 14:57:10;;;;;;;7.85;5.38;;;18.60;85.30;;;;;;5032781;28;20079;-86
2021/05/11 14:59:35;;;;;;;10.75;7.53;;;18.60;85.30;;;;;;5051629;28;20025;-85
2021/05/11 15:02:01;;;;;;;10.32;7.30;;;18.60;85.30;;;;;;5069352;28;20462;-85
2021/05/11 15:04:26;;;;;;;10.75;8.13;;;18.50;85.30;;;;;;5058161;22;20084;-85
2021/05/11 15:06:52;;;;;;;9.90;8.40;;;18.50;85.60;;;;;;5052109;28;20043;-85
2021/05/11 15:09:18;;;;;;;11.25;8.65;;;18.50;85.80;;;;;;5036020;28;20107;-85
2021/05/11 15:11:44;;;;;;;10.15;8.05;;;18.40;85.70;;;;;;5036031;28;20111;-85
2021/05/11 15:14:11;;;;;;;11.68;8.18;;;18.40;85.40;;;;;;5052418;28;20036;-85
2021/05/11 15:16:38;;;;;;;12.68;9.52;;;18.40;85.40;;;;;;5033439;28;20549;-85
2021/05/11 15:19:05;;;;;;;11.57;9.68;;;18.30;85.60;;;;;;5034539;28;20518;-85
2021/05/11 15:21:32;;;;;;;10.20;8.07;;;18.40;86.10;;;;;;5049937;28;20033;-85
2021/05/11 15:23:59;;;;;;;10.55;8.68;;;18.30;86.90;;;;;;5030981;28;20463;-85
2021/05/11 15:26:26;;;;;;;10.70;8.90;;;18.30;87.10;;;;;;5053510;28;20094;-85
2021/05/11 15:28:52;;;;;;;10.98;8.93;;;18.30;86.80;;;;;;5051987;28;20022;-85
2021/05/11 15:31:18;;;;;;;11.77;9.32;;;18.40;87.10;;;;;;5032802;28;20078;-85
2021/05/11 15:33:43;;;;;;;10.48;9.02;;;18.30;87.20;;;;;;5051275;28;20025;-85
2021/05/11 15:36:09;;;;;;;9.82;8.82;;;18.40;87.50;;;;;;5049540;28;20083;-87
2021/05/11 15:38:35;;;;;;;10.57;9.48;;;18.40;87.40;;;;;;5033282;28;20552;-85
2021/05/11 15:41:00;;;;;;;10.90;9.80;;;18.40;87.70;;;;;;5052108;28;20596;-85
2021/05/11 15:43:27;;;;;;;10.50;8.85;;;18.40;87.70;;;;;;5051322;28;20067;-85
2021/05/11 15:45:52;;;;;;;11.32;8.52;;;18.40;87.90;;;;;;5049846;28;20024;-85
2021/05/11 15:48:18;;;;;;;10.13;9.02;;;18.40;88.30;;;;;;5044217;28;20033;-85
2021/05/11 15:50:46;;;;;;;9.93;8.93;;;18.40;87.80;;;;;;5046674;28;20420;-85
2021/05/11 15:53:15;;;;;;;10.20;9.18;;;18.30;87.70;;;;;;5043069;28;20488;-85
2021/05/11 15:55:42;;;;;;;10.30;9.23;;;18.40;87.70;;;;;;5051495;28;20029;-85
2021/05/11 15:58:10;;;;;;;10.68;9.30;;;18.30;87.70;;;;;;5047951;28;20056;-85
2021/05/11 16:00:37;;;;;;;11.70;9.75;;;18.30;87.90;;;;;;5050552;28;20032;-85
2021/05/11 16:03:04;;;;;;;11.35;10.18;;;18.30;88.10;;;;;;5043867;28;20017;-86
2021/05/11 16:05:35;;;;;;;11.32;10.15;;;18.30;88.20;;;;;;5035331;28;20461;-87
2021/05/11 16:08:02;;;;;;;11.20;10.00;;;18.40;88.20;;;;;;5052388;28;20021;-86
2021/05/11 16:10:28;;;;;;;13.13;10.57;;;18.30;88.50;;;;;;5029948;28;20466;-85
2021/05/11 16:12:54;;;;;;;11.75;10.52;;;18.30;87.60;;;;;;5051748;28;20021;-85
2021/05/11 16:15:21;;;;;;;11.63;10.43;;;18.30;87.60;;;;;;5045811;28;20095;-85
2021/05/11 16:17:47;;;;;;;11.30;10.13;;;18.30;87.90;;;;;;5052376;28;20021;-85
2021/05/11 16:20:22;;;;;;;11.98;10.38;;;18.20;87.40;;;;;;5025474;28;20087;-85
2021/05/11 16:22:48;;;;;;;14.43;10.35;;;18.20;86.90;;;;;;5054437;28;20036;-85
2021/05/11 16:25:14;;;;;;;12.82;10.07;;;18.10;86.90;;;;;;5045601;28;20021;-84
2021/05/11 16:27:42;;;;;;;10.43;9.40;;;18.10;87.10;;;;;;5049368;28;20025;-85
2021/05/11 16:30:13;;;;;;;11.27;10.10;;;18.00;87.80;;;;;;5031726;28;20017;-85
2021/05/11 16:32:39;;;;;;;11.30;10.10;;;18.00;87.90;;;;;;5055367;28;20112;-86
2021/05/11 16:35:07;;;;;;;11.40;10.30;;;18.00;88.10;;;;;;5055866;28;20031;-86
2021/05/11 16:37:32;;;;;;;11.63;10.35;;;18.00;87.90;;;;;;5052899;28;20111;-86
2021/05/11 16:39:58;;;;;;;11.23;10.13;;;18.00;87.30;;;;;;5057225;28;20146;-86
2021/05/11 16:42:24;;;;;;;11.73;10.43;;;17.90;86.90;;;;;;5019788;28;20044;-86
2021/05/11 16:44:50;;;;;;;10.90;9.55;;;17.80;86.80;;;;;;5055808;28;20024;-86
2021/05/11 16:47:15;;;;;;;10.85;9.30;;;17.70;87.10;;;;;;5054527;28;20021;-86
2021/05/11 16:49:41;;;;;;;12.20;10.57;;;17.60;87.60;;;;;;5038114;28;20029;-86
2021/05/11 16:52:07;;;;;;;11.77;9.90;;;17.50;87.70;;;;;;5038689;28;20025;-86
2021/05/11 16:54:33;;;;;;;12.88;10.80;;;17.40;88.30;;;;;;5038553;28;20036;-86
2021/05/11 16:56:59;;;;;;;12.82;11.23;;;17.40;88.30;;;;;;5055076;28;20057;-86
2021/05/11 16:59:24;;;;;;;12.68;11.38;;;17.30;88.40;;;;;;5035601;28;20025;-86
2021/05/11 17:01:50;;;;;;;13.35;11.45;;;17.30;88.90;;;;;;5054691;28;20033;-85
2021/05/11 17:04:16;;;;;;;11.90;9.55;;;17.30;89.10;;;;;;5053912;28;20577;-86
2021/05/11 17:06:42;;;;;;;10.85;9.75;;;17.30;89.50;;;;;;5015098;28;20037;-85
2021/05/11 17:09:09;;;;;;;11.45;10.25;;;17.30;89.70;;;;;;5054345;28;20029;-86
2021/05/11 17:11:36;;;;;;;11.77;9.80;;;17.30;89.80;;;;;;5053944;28;20055;-87
2021/05/11 17:14:08;;;;;;;11.95;10.15;;;17.30;89.80;;;;;;5039308;28;20028;-88
2021/05/11 17:16:34;;;;;;;11.25;10.07;;;17.30;89.70;;;;;;5056821;28;20033;-87
2021/05/11 17:19:00;;;;;;;10.80;9.57;;;17.40;89.50;;;;;;5054672;28;20109;-87
2021/05/11 17:21:27;;;;;;;11.02;9.10;;;17.30;89.30;;;;;;5054573;28;20108;-87
2021/05/11 17:23:53;;;;;;;11.48;9.48;;;17.30;89.70;;;;;;5054396;28;20009;-88
2021/05/11 17:26:19;;;;;;;10.65;9.48;;;17.30;89.80;;;;;;5033775;28;20060;-88